DAL2457 KLAX-KPDX
Flight info
| Callsign | DAL2457 |
|---|---|
| Flight time | 1h 59m |
| Altitude | 38000 |
| Route | LADYJ4 CSTRO SHIMR LMT MOXEE TMBRS4 |
| Aircraft | A319/M-SDE3FGHIRWY/LB1 |
Departure
| Time | 2026-04-22 22:51 |
|---|---|
| Airport | Los Angeles International Airport (KLAX) |
Arrival
| Time | 2026-04-23 00:50 |
|---|---|
| Airport | Portland International Airport (KPDX) |
| Time | Latitude | Longitude | Altitude | Speed | Heading |
|---|---|---|---|---|---|
| 2026-04-22 22:27 | 33.94677 | -118.40649 | 95 ft | 0 kts | 263° |
| 2026-04-22 22:44 | 33.94679 | -118.40632 | 95 ft | 4 kts | 263° |
| 2026-04-22 22:44 | 33.94681 | -118.40606 | 93 ft | 4 kts | 267° |
| 2026-04-22 22:44 | 33.94678 | -118.40578 | 93 ft | 4 kts | 313° |
| 2026-04-22 22:45 | 33.94658 | -118.40567 | 93 ft | 4 kts | 353° |
| 2026-04-22 22:45 | 33.94648 | -118.40566 | 92 ft | 0 kts | 353° |
| 2026-04-22 22:48 | 33.94662 | -118.40568 | 94 ft | 7 kts | 353° |
| 2026-04-22 22:48 | 33.94737 | -118.40578 | 93 ft | 14 kts | 353° |
| 2026-04-22 22:48 | 33.94837 | -118.40601 | 94 ft | 11 kts | 359° |
| 2026-04-22 22:49 | 33.94871 | -118.40530 | 94 ft | 11 kts | 84° |
| 2026-04-22 22:49 | 33.94880 | -118.40430 | 96 ft | 13 kts | 83° |
| 2026-04-22 22:49 | 33.94892 | -118.40315 | 94 ft | 15 kts | 83° |
| 2026-04-22 22:49 | 33.94910 | -118.40189 | 95 ft | 16 kts | 65° |
| 2026-04-22 22:50 | 33.94998 | -118.40180 | 99 ft | 12 kts | 337° |
| 2026-04-22 22:50 | 33.95010 | -118.40273 | 98 ft | 13 kts | 263° |
| 2026-04-22 22:50 | 33.94995 | -118.40415 | 97 ft | 36 kts | 263° |
| 2026-04-22 22:50 | 33.94931 | -118.41033 | 97 ft | 109 kts | 263° |
| 2026-04-22 22:51 | 33.94855 | -118.41741 | 138 ft | 142 kts | 261° |
| 2026-04-22 22:51 | 33.94683 | -118.43343 | 967 ft | 147 kts | 262° |
| 2026-04-22 22:51 | 33.94562 | -118.44571 | 1726 ft | 148 kts | 264° |
| 2026-04-22 22:51 | 33.94443 | -118.45877 | 2205 ft | 169 kts | 264° |
| 2026-04-22 22:52 | 33.94298 | -118.47398 | 2519 ft | 199 kts | 264° |
| 2026-04-22 22:52 | 33.94217 | -118.48547 | 2809 ft | 216 kts | 267° |
| 2026-04-22 22:52 | 33.94160 | -118.51138 | 3567 ft | 247 kts | 270° |
| 2026-04-22 22:52 | 33.94120 | -118.52532 | 4053 ft | 255 kts | 268° |
| 2026-04-22 22:53 | 33.93932 | -118.55396 | 5346 ft | 262 kts | 266° |
| 2026-04-22 22:53 | 33.93749 | -118.57597 | 6353 ft | 265 kts | 266° |
| 2026-04-22 22:53 | 33.93620 | -118.59089 | 7063 ft | 265 kts | 266° |
| 2026-04-22 22:53 | 33.93785 | -118.62012 | 7788 ft | 265 kts | 288° |
| 2026-04-22 22:54 | 33.94314 | -118.63364 | 7928 ft | 265 kts | 302° |
| 2026-04-22 22:54 | 33.96101 | -118.65389 | 7994 ft | 272 kts | 327° |
| 2026-04-22 22:54 | 33.97173 | -118.66165 | 8001 ft | 272 kts | 327° |
| 2026-04-22 22:54 | 33.98879 | -118.67163 | 7991 ft | 272 kts | 339° |
| 2026-04-22 22:55 | 34.00737 | -118.67582 | 7985 ft | 274 kts | 354° |
| 2026-04-22 22:55 | 34.02645 | -118.67503 | 8003 ft | 275 kts | 0° |
| 2026-04-22 22:55 | 34.06463 | -118.67260 | 8003 ft | 275 kts | 360° |
| 2026-04-22 22:56 | 34.08373 | -118.67035 | 7994 ft | 278 kts | 7° |
| 2026-04-22 22:56 | 34.10303 | -118.66576 | 8657 ft | 284 kts | 7° |
| 2026-04-22 22:56 | 34.12248 | -118.66115 | 9660 ft | 287 kts | 7° |
| 2026-04-22 22:56 | 34.14246 | -118.65651 | 10321 ft | 301 kts | 6° |
| 2026-04-22 22:57 | 34.16385 | -118.65162 | 10699 ft | 323 kts | 6° |
| 2026-04-22 22:57 | 34.18628 | -118.64641 | 11371 ft | 332 kts | 6° |
| 2026-04-22 22:57 | 34.20916 | -118.64102 | 12149 ft | 338 kts | 5° |
| 2026-04-22 22:57 | 34.23212 | -118.63612 | 12929 ft | 340 kts | 0° |
| 2026-04-22 22:58 | 34.25561 | -118.63580 | 13721 ft | 337 kts | 348° |
| 2026-04-22 22:58 | 34.27867 | -118.64033 | 14443 ft | 337 kts | 342° |
| 2026-04-22 22:58 | 34.30181 | -118.64564 | 15181 ft | 340 kts | 342° |
| 2026-04-22 22:58 | 34.32549 | -118.65107 | 15894 ft | 344 kts | 342° |
| 2026-04-22 22:59 | 34.34906 | -118.65648 | 16603 ft | 346 kts | 342° |
| 2026-04-22 22:59 | 34.37257 | -118.66186 | 17251 ft | 351 kts | 342° |
| 2026-04-22 22:59 | 34.39665 | -118.66737 | 17995 ft | 353 kts | 342° |
| 2026-04-22 22:59 | 34.42086 | -118.67295 | 18673 ft | 356 kts | 342° |
| 2026-04-22 23:00 | 34.44537 | -118.67840 | 19294 ft | 360 kts | 342° |
| 2026-04-22 23:00 | 34.47025 | -118.68342 | 19895 ft | 364 kts | 343° |
| 2026-04-22 23:00 | 34.49545 | -118.68821 | 20494 ft | 368 kts | 343° |
| 2026-04-22 23:00 | 34.52092 | -118.69298 | 21109 ft | 371 kts | 343° |
| 2026-04-22 23:01 | 34.54658 | -118.69778 | 21695 ft | 375 kts | 342° |
| 2026-04-22 23:01 | 34.57249 | -118.70267 | 22281 ft | 379 kts | 342° |
| 2026-04-22 23:01 | 34.59862 | -118.70767 | 22866 ft | 382 kts | 342° |
| 2026-04-22 23:01 | 34.62460 | -118.71272 | 23491 ft | 385 kts | 341° |
| 2026-04-22 23:02 | 34.65114 | -118.71794 | 24014 ft | 388 kts | 341° |
| 2026-04-22 23:02 | 34.67821 | -118.72330 | 24440 ft | 391 kts | 341° |
| 2026-04-22 23:02 | 34.70461 | -118.72911 | 24901 ft | 388 kts | 336° |
| 2026-04-22 23:02 | 34.72994 | -118.73943 | 25356 ft | 380 kts | 327° |
| 2026-04-22 23:03 | 34.75321 | -118.75423 | 25795 ft | 377 kts | 322° |
| 2026-04-22 23:03 | 34.77611 | -118.77003 | 26256 ft | 379 kts | 322° |
| 2026-04-22 23:03 | 34.79914 | -118.78596 | 26679 ft | 382 kts | 322° |
| 2026-04-22 23:03 | 34.82239 | -118.80200 | 27082 ft | 385 kts | 322° |
| 2026-04-22 23:04 | 34.84575 | -118.81808 | 27508 ft | 388 kts | 322° |
| 2026-04-22 23:04 | 34.86936 | -118.83429 | 27929 ft | 390 kts | 322° |
| 2026-04-22 23:04 | 34.89307 | -118.85058 | 28354 ft | 393 kts | 322° |
| 2026-04-22 23:04 | 34.91698 | -118.86704 | 28777 ft | 395 kts | 322° |
| 2026-04-22 23:05 | 34.94106 | -118.88363 | 29195 ft | 398 kts | 322° |
| 2026-04-22 23:05 | 34.96526 | -118.90031 | 29594 ft | 401 kts | 322° |
| 2026-04-22 23:05 | 34.98963 | -118.91710 | 29998 ft | 404 kts | 322° |
| 2026-04-22 23:05 | 35.01412 | -118.93397 | 30394 ft | 406 kts | 322° |
| 2026-04-22 23:06 | 35.03845 | -118.95076 | 30755 ft | 408 kts | 322° |
| 2026-04-22 23:06 | 35.06316 | -118.96783 | 31155 ft | 409 kts | 322° |
| 2026-04-22 23:06 | 35.08795 | -118.98493 | 31547 ft | 410 kts | 322° |
| 2026-04-22 23:06 | 35.11285 | -119.00211 | 31904 ft | 411 kts | 322° |
| 2026-04-22 23:07 | 35.13768 | -119.01927 | 32372 ft | 409 kts | 321° |
| 2026-04-22 23:07 | 35.16240 | -119.03638 | 32853 ft | 407 kts | 321° |
| 2026-04-22 23:07 | 35.18700 | -119.05338 | 33317 ft | 405 kts | 321° |
| 2026-04-22 23:07 | 35.21147 | -119.07031 | 33879 ft | 402 kts | 321° |
| 2026-04-22 23:08 | 35.23568 | -119.08710 | 34380 ft | 399 kts | 320° |
| 2026-04-22 23:08 | 35.25975 | -119.10385 | 34792 ft | 397 kts | 320° |
| 2026-04-22 23:08 | 35.28372 | -119.12056 | 35171 ft | 396 kts | 320° |
| 2026-04-22 23:08 | 35.30767 | -119.13728 | 35523 ft | 396 kts | 320° |
| 2026-04-22 23:09 | 35.33156 | -119.15398 | 35856 ft | 395 kts | 320° |
| 2026-04-22 23:09 | 35.35513 | -119.17043 | 36169 ft | 395 kts | 320° |
| 2026-04-22 23:09 | 35.37898 | -119.18706 | 36521 ft | 394 kts | 320° |
| 2026-04-22 23:09 | 35.40278 | -119.20368 | 36845 ft | 393 kts | 320° |
| 2026-04-22 23:10 | 35.42655 | -119.22029 | 37153 ft | 393 kts | 320° |
| 2026-04-22 23:10 | 35.45149 | -119.23496 | 37443 ft | 404 kts | 328° |
| 2026-04-22 23:10 | 35.47890 | -119.24471 | 37737 ft | 415 kts | 335° |
| 2026-04-22 23:10 | 35.50697 | -119.25298 | 38000 ft | 415 kts | 334° |
| 2026-04-22 23:11 | 35.53503 | -119.26124 | 38151 ft | 415 kts | 334° |
| 2026-04-22 23:11 | 35.56303 | -119.26951 | 38174 ft | 413 kts | 334° |
| 2026-04-22 23:11 | 35.61875 | -119.28613 | 38168 ft | 411 kts | 334° |
| 2026-04-22 23:12 | 35.67424 | -119.30280 | 38172 ft | 410 kts | 334° |
| 2026-04-22 23:12 | 35.72966 | -119.31947 | 38174 ft | 410 kts | 334° |
| 2026-04-22 23:13 | 35.78512 | -119.33614 | 38210 ft | 410 kts | 334° |
| 2026-04-22 23:13 | 35.84061 | -119.35286 | 38204 ft | 410 kts | 334° |
| 2026-04-22 23:14 | 35.89614 | -119.36950 | 38203 ft | 410 kts | 334° |
| 2026-04-22 23:14 | 35.95129 | -119.38609 | 38204 ft | 410 kts | 334° |
| 2026-04-22 23:15 | 36.00673 | -119.40287 | 38194 ft | 410 kts | 334° |
| 2026-04-22 23:15 | 36.06204 | -119.41964 | 38192 ft | 409 kts | 334° |
| 2026-04-22 23:16 | 36.11733 | -119.43644 | 38193 ft | 409 kts | 334° |
| 2026-04-22 23:16 | 36.17264 | -119.45325 | 38195 ft | 410 kts | 334° |
| 2026-04-22 23:17 | 36.22804 | -119.47005 | 38207 ft | 410 kts | 334° |
| 2026-04-22 23:17 | 36.28353 | -119.48685 | 38195 ft | 410 kts | 334° |
| 2026-04-22 23:18 | 36.33895 | -119.50372 | 38195 ft | 410 kts | 334° |
| 2026-04-22 23:18 | 36.39396 | -119.52057 | 38234 ft | 410 kts | 334° |
| 2026-04-22 23:19 | 36.44917 | -119.53744 | 38185 ft | 407 kts | 334° |
| 2026-04-22 23:19 | 36.50415 | -119.55428 | 38170 ft | 407 kts | 334° |
| 2026-04-22 23:20 | 36.55925 | -119.57115 | 38177 ft | 408 kts | 334° |
| 2026-04-22 23:20 | 36.61439 | -119.58803 | 38218 ft | 408 kts | 334° |
| 2026-04-22 23:21 | 36.66952 | -119.60503 | 38206 ft | 408 kts | 334° |
| 2026-04-22 23:21 | 36.72466 | -119.62205 | 38203 ft | 408 kts | 334° |
| 2026-04-22 23:22 | 36.77945 | -119.63892 | 38203 ft | 408 kts | 334° |
| 2026-04-22 23:22 | 36.83460 | -119.65592 | 38202 ft | 408 kts | 334° |
| 2026-04-22 23:23 | 36.88972 | -119.67294 | 38202 ft | 408 kts | 334° |
| 2026-04-22 23:23 | 36.94480 | -119.68995 | 38201 ft | 407 kts | 334° |
| 2026-04-22 23:24 | 36.99980 | -119.70703 | 38202 ft | 406 kts | 334° |
| 2026-04-22 23:24 | 37.05459 | -119.72401 | 38185 ft | 405 kts | 334° |
| 2026-04-22 23:25 | 37.10927 | -119.74100 | 38186 ft | 405 kts | 334° |
| 2026-04-22 23:25 | 37.16406 | -119.75813 | 38184 ft | 406 kts | 334° |
| 2026-04-22 23:26 | 37.21886 | -119.77534 | 38205 ft | 407 kts | 335° |
| 2026-04-22 23:26 | 37.27381 | -119.79248 | 38198 ft | 407 kts | 335° |
| 2026-04-22 23:27 | 37.32884 | -119.80965 | 38197 ft | 407 kts | 335° |
| 2026-04-22 23:27 | 37.38387 | -119.82684 | 38222 ft | 408 kts | 335° |
| 2026-04-22 23:28 | 37.43859 | -119.84410 | 38204 ft | 408 kts | 335° |
| 2026-04-22 23:28 | 37.49373 | -119.86146 | 38205 ft | 408 kts | 335° |
| 2026-04-22 23:29 | 37.54886 | -119.87880 | 38213 ft | 409 kts | 335° |
| 2026-04-22 23:29 | 37.60406 | -119.89618 | 38230 ft | 409 kts | 335° |
| 2026-04-22 23:30 | 37.65932 | -119.91371 | 38221 ft | 410 kts | 335° |
| 2026-04-22 23:30 | 37.71480 | -119.93123 | 38212 ft | 411 kts | 335° |
| 2026-04-22 23:31 | 37.77024 | -119.94875 | 38230 ft | 411 kts | 336° |
| 2026-04-22 23:31 | 37.82583 | -119.96638 | 38212 ft | 412 kts | 336° |
| 2026-04-22 23:32 | 37.88154 | -119.98411 | 38207 ft | 413 kts | 336° |
| 2026-04-22 23:32 | 37.93691 | -120.00173 | 38236 ft | 413 kts | 336° |
| 2026-04-22 23:33 | 37.99270 | -120.01950 | 38211 ft | 414 kts | 336° |
| 2026-04-22 23:33 | 38.04863 | -120.03731 | 38213 ft | 414 kts | 336° |
| 2026-04-22 23:34 | 38.10461 | -120.05520 | 38216 ft | 415 kts | 336° |
| 2026-04-22 23:34 | 38.16066 | -120.07321 | 38231 ft | 416 kts | 337° |
| 2026-04-22 23:35 | 38.21683 | -120.09120 | 38227 ft | 417 kts | 337° |
| 2026-04-22 23:35 | 38.27268 | -120.11050 | 38225 ft | 414 kts | 334° |
| 2026-04-22 23:36 | 38.32746 | -120.13259 | 38239 ft | 412 kts | 333° |
| 2026-04-22 23:36 | 38.38210 | -120.15498 | 38240 ft | 413 kts | 334° |
| 2026-04-22 23:37 | 38.43708 | -120.17678 | 38238 ft | 414 kts | 334° |
| 2026-04-22 23:37 | 38.49220 | -120.19836 | 38272 ft | 414 kts | 334° |
| 2026-04-22 23:38 | 38.54725 | -120.22006 | 38255 ft | 414 kts | 335° |
| 2026-04-22 23:38 | 38.60236 | -120.24192 | 38246 ft | 415 kts | 335° |
| 2026-04-22 23:39 | 38.65755 | -120.26380 | 38241 ft | 415 kts | 335° |
| 2026-04-22 23:39 | 38.70340 | -120.28202 | 38239 ft | 415 kts | 335° |
| 2026-04-22 23:40 | 38.76751 | -120.30757 | 38242 ft | 415 kts | 335° |
| 2026-04-22 23:40 | 38.82273 | -120.32955 | 38239 ft | 415 kts | 335° |
| 2026-04-22 23:41 | 38.87794 | -120.35153 | 38260 ft | 416 kts | 335° |
| 2026-04-22 23:41 | 38.93321 | -120.37354 | 38252 ft | 416 kts | 335° |
| 2026-04-22 23:42 | 38.98854 | -120.39569 | 38248 ft | 416 kts | 335° |
| 2026-04-22 23:42 | 39.04391 | -120.41790 | 38269 ft | 417 kts | 335° |
| 2026-04-22 23:43 | 39.09931 | -120.44013 | 38258 ft | 417 kts | 335° |
| 2026-04-22 23:43 | 39.15439 | -120.46231 | 38256 ft | 417 kts | 335° |
| 2026-04-22 23:44 | 39.20983 | -120.48468 | 38274 ft | 418 kts | 335° |
| 2026-04-22 23:44 | 39.26530 | -120.50711 | 38261 ft | 418 kts | 335° |
| 2026-04-22 23:45 | 39.31182 | -120.52589 | 38260 ft | 418 kts | 335° |
| 2026-04-22 23:45 | 39.36734 | -120.54831 | 38256 ft | 418 kts | 335° |
| 2026-04-22 23:46 | 39.42246 | -120.57067 | 38270 ft | 418 kts | 336° |
| 2026-04-22 23:46 | 39.47806 | -120.59330 | 38260 ft | 419 kts | 336° |
| 2026-04-22 23:47 | 39.53366 | -120.61595 | 38242 ft | 418 kts | 336° |
| 2026-04-22 23:47 | 39.58920 | -120.63861 | 38262 ft | 418 kts | 336° |
| 2026-04-22 23:48 | 39.64476 | -120.66126 | 38248 ft | 419 kts | 336° |
| 2026-04-22 23:48 | 39.70041 | -120.68394 | 38236 ft | 419 kts | 336° |
| 2026-04-22 23:49 | 39.75606 | -120.70678 | 38251 ft | 419 kts | 336° |
| 2026-04-22 23:49 | 39.81127 | -120.72951 | 38235 ft | 419 kts | 336° |
| 2026-04-22 23:50 | 39.86703 | -120.75233 | 38237 ft | 420 kts | 337° |
| 2026-04-22 23:50 | 39.92269 | -120.77527 | 38249 ft | 420 kts | 337° |
| 2026-04-22 23:51 | 39.97842 | -120.79829 | 38230 ft | 420 kts | 337° |
| 2026-04-22 23:51 | 40.03418 | -120.82128 | 38221 ft | 420 kts | 337° |
| 2026-04-22 23:52 | 40.08994 | -120.84433 | 38219 ft | 420 kts | 337° |
| 2026-04-22 23:52 | 40.14568 | -120.86752 | 38202 ft | 420 kts | 337° |
| 2026-04-22 23:53 | 40.20104 | -120.89055 | 38191 ft | 420 kts | 337° |
| 2026-04-22 23:53 | 40.25671 | -120.91366 | 38212 ft | 420 kts | 338° |
| 2026-04-22 23:54 | 40.31246 | -120.93684 | 38192 ft | 421 kts | 338° |
| 2026-04-22 23:54 | 40.36825 | -120.96017 | 38180 ft | 421 kts | 338° |
| 2026-04-22 23:55 | 40.42402 | -120.98351 | 38194 ft | 421 kts | 338° |
| 2026-04-22 23:55 | 40.47978 | -121.00689 | 38204 ft | 420 kts | 337° |
| 2026-04-22 23:56 | 40.53547 | -121.03030 | 38208 ft | 420 kts | 338° |
| 2026-04-22 23:56 | 40.59114 | -121.05366 | 38223 ft | 420 kts | 338° |
| 2026-04-22 23:57 | 40.64686 | -121.07705 | 38210 ft | 420 kts | 338° |
| 2026-04-22 23:57 | 40.70261 | -121.10051 | 38211 ft | 420 kts | 338° |
| 2026-04-22 23:58 | 40.75828 | -121.12403 | 38225 ft | 420 kts | 338° |
| 2026-04-22 23:58 | 40.81399 | -121.14771 | 38218 ft | 420 kts | 338° |
| 2026-04-22 23:59 | 40.86973 | -121.17144 | 38214 ft | 420 kts | 338° |
| 2026-04-22 23:59 | 40.92545 | -121.19514 | 38217 ft | 421 kts | 338° |
| 2026-04-23 00:00 | 41.00874 | -121.23042 | 38211 ft | 421 kts | 339° |
| 2026-04-23 00:01 | 41.06449 | -121.25416 | 38211 ft | 420 kts | 338° |
| 2026-04-23 00:01 | 41.12017 | -121.27804 | 38214 ft | 420 kts | 339° |
| 2026-04-23 00:02 | 41.17581 | -121.30193 | 38206 ft | 420 kts | 339° |
| 2026-04-23 00:02 | 41.23141 | -121.32574 | 38210 ft | 420 kts | 339° |
| 2026-04-23 00:03 | 41.28702 | -121.34955 | 38215 ft | 419 kts | 339° |
| 2026-04-23 00:03 | 41.34256 | -121.37346 | 38214 ft | 419 kts | 339° |
| 2026-04-23 00:04 | 41.39807 | -121.39734 | 38211 ft | 419 kts | 339° |
| 2026-04-23 00:04 | 41.45355 | -121.42134 | 38213 ft | 419 kts | 339° |
| 2026-04-23 00:05 | 41.50900 | -121.44543 | 38209 ft | 419 kts | 339° |
| 2026-04-23 00:05 | 41.56409 | -121.46938 | 38195 ft | 419 kts | 339° |
| 2026-04-23 00:06 | 41.61959 | -121.49347 | 38189 ft | 419 kts | 339° |
| 2026-04-23 00:06 | 41.67504 | -121.51756 | 38188 ft | 419 kts | 339° |
| 2026-04-23 00:07 | 41.73046 | -121.54168 | 38190 ft | 419 kts | 339° |
| 2026-04-23 00:07 | 41.78590 | -121.56589 | 38181 ft | 419 kts | 339° |
| 2026-04-23 00:08 | 41.84138 | -121.59016 | 38180 ft | 419 kts | 339° |
| 2026-04-23 00:08 | 41.89685 | -121.61447 | 38174 ft | 420 kts | 339° |
| 2026-04-23 00:09 | 41.95234 | -121.63887 | 38166 ft | 420 kts | 339° |
| 2026-04-23 00:09 | 42.00781 | -121.66327 | 38157 ft | 420 kts | 339° |
| 2026-04-23 00:10 | 42.06339 | -121.68772 | 38154 ft | 420 kts | 339° |
| 2026-04-23 00:10 | 42.11852 | -121.71206 | 38155 ft | 420 kts | 339° |
| 2026-04-23 00:11 | 42.17397 | -121.73702 | 38160 ft | 420 kts | 338° |
| 2026-04-23 00:11 | 42.22882 | -121.76417 | 38202 ft | 419 kts | 337° |
| 2026-04-23 00:12 | 42.28345 | -121.79200 | 38190 ft | 420 kts | 337° |
| 2026-04-23 00:12 | 42.33825 | -121.81962 | 38186 ft | 421 kts | 338° |
| 2026-04-23 00:13 | 42.39319 | -121.84704 | 38190 ft | 421 kts | 338° |
| 2026-04-23 00:13 | 42.44813 | -121.87455 | 38190 ft | 421 kts | 338° |
| 2026-04-23 00:14 | 42.50311 | -121.90214 | 38202 ft | 421 kts | 338° |
| 2026-04-23 00:14 | 42.55770 | -121.92955 | 38212 ft | 421 kts | 338° |
| 2026-04-23 00:15 | 42.61269 | -121.95721 | 38219 ft | 421 kts | 338° |
| 2026-04-23 00:15 | 42.66768 | -121.98497 | 38219 ft | 421 kts | 338° |
| 2026-04-23 00:16 | 42.72258 | -122.01279 | 38232 ft | 421 kts | 338° |
| 2026-04-23 00:16 | 42.77748 | -122.04063 | 38240 ft | 420 kts | 338° |
| 2026-04-23 00:17 | 42.83233 | -122.06837 | 38226 ft | 421 kts | 338° |
| 2026-04-23 00:17 | 42.88695 | -122.09612 | 38230 ft | 421 kts | 338° |
| 2026-04-23 00:18 | 42.94181 | -122.12414 | 38240 ft | 421 kts | 338° |
| 2026-04-23 00:18 | 42.99664 | -122.15213 | 38246 ft | 421 kts | 338° |
| 2026-04-23 00:19 | 43.05149 | -122.18006 | 38247 ft | 420 kts | 338° |
| 2026-04-23 00:19 | 43.10631 | -122.20813 | 38248 ft | 420 kts | 338° |
| 2026-04-23 00:20 | 43.16111 | -122.23640 | 38244 ft | 421 kts | 338° |
| 2026-04-23 00:20 | 43.21593 | -122.26462 | 38252 ft | 420 kts | 338° |
| 2026-04-23 00:21 | 43.27076 | -122.29290 | 38240 ft | 422 kts | 338° |
| 2026-04-23 00:21 | 43.32582 | -122.32124 | 38237 ft | 423 kts | 338° |
| 2026-04-23 00:22 | 43.38058 | -122.34950 | 38259 ft | 423 kts | 338° |
| 2026-04-23 00:22 | 43.43567 | -122.37807 | 38258 ft | 423 kts | 338° |
| 2026-04-23 00:23 | 43.49091 | -122.40676 | 38250 ft | 424 kts | 338° |
| 2026-04-23 00:23 | 43.54623 | -122.43544 | 38252 ft | 425 kts | 338° |
| 2026-04-23 00:24 | 43.60153 | -122.46431 | 38255 ft | 425 kts | 338° |
| 2026-04-23 00:24 | 43.65688 | -122.49329 | 38187 ft | 429 kts | 338° |
| 2026-04-23 00:24 | 43.68505 | -122.50803 | 37910 ft | 436 kts | 338° |
| 2026-04-23 00:25 | 43.71313 | -122.52272 | 37646 ft | 437 kts | 338° |
| 2026-04-23 00:25 | 43.74141 | -122.53752 | 37288 ft | 431 kts | 339° |
| 2026-04-23 00:25 | 43.76931 | -122.55215 | 36788 ft | 426 kts | 339° |
| 2026-04-23 00:25 | 43.79687 | -122.56664 | 36307 ft | 422 kts | 339° |
| 2026-04-23 00:26 | 43.82420 | -122.58098 | 35817 ft | 418 kts | 340° |
| 2026-04-23 00:26 | 43.85130 | -122.59519 | 35327 ft | 415 kts | 340° |
| 2026-04-23 00:26 | 43.87821 | -122.60933 | 34832 ft | 412 kts | 340° |
| 2026-04-23 00:26 | 43.90497 | -122.62344 | 34330 ft | 410 kts | 341° |
| 2026-04-23 00:27 | 43.93153 | -122.63748 | 33797 ft | 407 kts | 340° |
| 2026-04-23 00:27 | 43.95783 | -122.65141 | 33316 ft | 402 kts | 341° |
| 2026-04-23 00:27 | 43.98388 | -122.66522 | 32834 ft | 398 kts | 341° |
| 2026-04-23 00:27 | 44.00965 | -122.67884 | 32360 ft | 394 kts | 341° |
| 2026-04-23 00:28 | 44.03515 | -122.69234 | 31899 ft | 390 kts | 341° |
| 2026-04-23 00:28 | 44.06033 | -122.70569 | 31446 ft | 386 kts | 341° |
| 2026-04-23 00:28 | 44.08529 | -122.71895 | 30996 ft | 382 kts | 341° |
| 2026-04-23 00:28 | 44.11005 | -122.73214 | 30570 ft | 379 kts | 340° |
| 2026-04-23 00:29 | 44.13480 | -122.74413 | 30109 ft | 375 kts | 347° |
| 2026-04-23 00:29 | 44.16002 | -122.75000 | 29669 ft | 369 kts | 356° |
| 2026-04-23 00:29 | 44.18552 | -122.74959 | 29252 ft | 365 kts | 4° |
| 2026-04-23 00:29 | 44.21075 | -122.74700 | 28842 ft | 362 kts | 4° |
| 2026-04-23 00:30 | 44.23577 | -122.74453 | 28440 ft | 358 kts | 4° |
| 2026-04-23 00:30 | 44.26048 | -122.74214 | 28037 ft | 354 kts | 4° |
| 2026-04-23 00:30 | 44.28494 | -122.73981 | 27621 ft | 351 kts | 4° |
| 2026-04-23 00:30 | 44.30914 | -122.73750 | 27211 ft | 347 kts | 4° |
| 2026-04-23 00:31 | 44.33316 | -122.73514 | 26793 ft | 344 kts | 4° |
| 2026-04-23 00:31 | 44.35694 | -122.73281 | 26377 ft | 341 kts | 4° |
| 2026-04-23 00:31 | 44.38057 | -122.73054 | 25937 ft | 339 kts | 4° |
| 2026-04-23 00:31 | 44.40407 | -122.72824 | 25500 ft | 337 kts | 4° |
| 2026-04-23 00:32 | 44.42737 | -122.72593 | 25046 ft | 335 kts | 4° |
| 2026-04-23 00:32 | 44.45058 | -122.72359 | 24600 ft | 333 kts | 4° |
| 2026-04-23 00:32 | 44.47363 | -122.72127 | 24146 ft | 331 kts | 4° |
| 2026-04-23 00:32 | 44.49662 | -122.71901 | 23670 ft | 330 kts | 4° |
| 2026-04-23 00:33 | 44.51947 | -122.71676 | 23176 ft | 328 kts | 4° |
| 2026-04-23 00:33 | 44.54209 | -122.71450 | 22737 ft | 324 kts | 4° |
| 2026-04-23 00:33 | 44.55696 | -122.71302 | 22449 ft | 322 kts | 4° |
| 2026-04-23 00:33 | 44.58671 | -122.71007 | 21876 ft | 319 kts | 4° |
| 2026-04-23 00:34 | 44.60135 | -122.70862 | 21586 ft | 317 kts | 4° |
| 2026-04-23 00:34 | 44.63033 | -122.70573 | 21044 ft | 314 kts | 4° |
| 2026-04-23 00:34 | 44.65205 | -122.70355 | 20630 ft | 311 kts | 4° |
| 2026-04-23 00:34 | 44.67361 | -122.70139 | 20230 ft | 310 kts | 4° |
| 2026-04-23 00:35 | 44.68782 | -122.69995 | 19951 ft | 309 kts | 4° |
| 2026-04-23 00:35 | 44.70925 | -122.69777 | 19541 ft | 308 kts | 4° |
| 2026-04-23 00:35 | 44.73060 | -122.69561 | 19135 ft | 307 kts | 4° |
| 2026-04-23 00:35 | 44.75192 | -122.69344 | 18732 ft | 307 kts | 4° |
| 2026-04-23 00:36 | 44.77317 | -122.69127 | 18303 ft | 306 kts | 4° |
| 2026-04-23 00:36 | 44.79443 | -122.68911 | 17764 ft | 307 kts | 4° |
| 2026-04-23 00:36 | 44.81574 | -122.68696 | 17307 ft | 306 kts | 4° |
| 2026-04-23 00:36 | 44.83692 | -122.68484 | 16911 ft | 303 kts | 4° |
| 2026-04-23 00:37 | 44.85788 | -122.68277 | 16527 ft | 301 kts | 3° |
| 2026-04-23 00:37 | 44.87866 | -122.68073 | 16146 ft | 298 kts | 3° |
| 2026-04-23 00:37 | 44.89934 | -122.67868 | 15765 ft | 297 kts | 3° |
| 2026-04-23 00:37 | 44.91987 | -122.67659 | 15395 ft | 294 kts | 3° |
| 2026-04-23 00:38 | 44.94021 | -122.67451 | 15025 ft | 292 kts | 3° |
| 2026-04-23 00:38 | 44.96044 | -122.67245 | 14662 ft | 290 kts | 2° |
| 2026-04-23 00:38 | 44.98047 | -122.67037 | 14397 ft | 286 kts | 2° |
| 2026-04-23 00:38 | 45.00022 | -122.66831 | 14022 ft | 285 kts | 2° |
| 2026-04-23 00:39 | 45.01962 | -122.66638 | 13759 ft | 280 kts | 2° |
| 2026-04-23 00:39 | 45.03907 | -122.66445 | 13345 ft | 280 kts | 2° |
| 2026-04-23 00:39 | 45.05857 | -122.66248 | 12935 ft | 280 kts | 2° |
| 2026-04-23 00:39 | 45.07795 | -122.66050 | 12488 ft | 280 kts | 1° |
| 2026-04-23 00:40 | 45.09739 | -122.65853 | 12085 ft | 280 kts | 1° |
| 2026-04-23 00:40 | 45.11676 | -122.65653 | 11705 ft | 278 kts | 1° |
| 2026-04-23 00:40 | 45.13607 | -122.65452 | 11331 ft | 277 kts | 1° |
| 2026-04-23 00:40 | 45.15524 | -122.65255 | 10942 ft | 275 kts | 1° |
| 2026-04-23 00:41 | 45.17432 | -122.65061 | 10564 ft | 275 kts | 1° |
| 2026-04-23 00:41 | 45.19340 | -122.64867 | 10183 ft | 274 kts | 1° |
| 2026-04-23 00:41 | 45.21236 | -122.64672 | 9772 ft | 273 kts | 1° |
| 2026-04-23 00:41 | 45.23104 | -122.64479 | 9377 ft | 271 kts | 1° |
| 2026-04-23 00:42 | 45.24955 | -122.63966 | 8977 ft | 273 kts | 15° |
| 2026-04-23 00:42 | 45.26682 | -122.62757 | 8492 ft | 281 kts | 28° |
| 2026-04-23 00:42 | 45.28336 | -122.61261 | 7985 ft | 282 kts | 28° |
| 2026-04-23 00:42 | 45.29998 | -122.59761 | 7505 ft | 284 kts | 28° |
| 2026-04-23 00:43 | 45.31676 | -122.58251 | 6983 ft | 287 kts | 27° |
| 2026-04-23 00:43 | 45.33358 | -122.56738 | 6567 ft | 284 kts | 29° |
| 2026-04-23 00:43 | 45.35038 | -122.55227 | 6074 ft | 284 kts | 29° |
| 2026-04-23 00:43 | 45.36674 | -122.53749 | 5891 ft | 272 kts | 29° |
| 2026-04-23 00:44 | 45.38235 | -122.52334 | 5686 ft | 262 kts | 29° |
| 2026-04-23 00:44 | 45.39750 | -122.50963 | 5559 ft | 256 kts | 29° |
| 2026-04-23 00:44 | 45.41272 | -122.49593 | 5056 ft | 260 kts | 29° |
| 2026-04-23 00:44 | 45.42748 | -122.48260 | 4752 ft | 247 kts | 29° |
| 2026-04-23 00:45 | 45.44199 | -122.46949 | 4228 ft | 248 kts | 29° |
| 2026-04-23 00:45 | 45.45599 | -122.45485 | 3630 ft | 253 kts | 36° |
| 2026-04-23 00:45 | 45.46964 | -122.43942 | 3293 ft | 245 kts | 36° |
| 2026-04-23 00:45 | 45.48256 | -122.42477 | 3148 ft | 229 kts | 35° |
| 2026-04-23 00:46 | 45.49608 | -122.41553 | 3036 ft | 207 kts | 2° |
| 2026-04-23 00:46 | 45.50914 | -122.41752 | 2941 ft | 178 kts | 332° |
| 2026-04-23 00:46 | 45.51881 | -122.42734 | 2604 ft | 165 kts | 302° |
| 2026-04-23 00:46 | 45.52456 | -122.44081 | 2348 ft | 155 kts | 291° |
| 2026-04-23 00:47 | 45.52971 | -122.45393 | 2132 ft | 148 kts | 291° |
| 2026-04-23 00:47 | 45.53459 | -122.46637 | 1935 ft | 140 kts | 290° |
| 2026-04-23 00:47 | 45.53930 | -122.47842 | 1752 ft | 138 kts | 290° |
| 2026-04-23 00:47 | 45.54380 | -122.48988 | 1562 ft | 129 kts | 291° |
| 2026-04-23 00:48 | 45.54810 | -122.50088 | 1375 ft | 127 kts | 293° |
| 2026-04-23 00:48 | 45.55251 | -122.51177 | 1139 ft | 127 kts | 293° |
| 2026-04-23 00:48 | 45.55679 | -122.52270 | 972 ft | 126 kts | 293° |
| 2026-04-23 00:48 | 45.56113 | -122.53368 | 802 ft | 128 kts | 292° |
| 2026-04-23 00:49 | 45.56546 | -122.54491 | 657 ft | 130 kts | 292° |
| 2026-04-23 00:49 | 45.56986 | -122.55614 | 501 ft | 129 kts | 293° |
| 2026-04-23 00:49 | 45.57423 | -122.56740 | 315 ft | 130 kts | 293° |
| 2026-04-23 00:49 | 45.57866 | -122.57879 | 148 ft | 131 kts | 292° |
| 2026-04-23 00:50 | 45.58299 | -122.59007 | 32 ft | 121 kts | 295° |
| 2026-04-23 00:50 | 45.58634 | -122.59893 | 30 ft | 77 kts | 299° |
| 2026-04-23 00:50 | 45.58817 | -122.60353 | 27 ft | 34 kts | 300° |
| 2026-04-23 00:50 | 45.58910 | -122.60463 | 27 ft | 12 kts | 352° |
| 2026-04-23 00:51 | 45.58979 | -122.60414 | 28 ft | 12 kts | 47° |
| 2026-04-23 00:51 | 45.59039 | -122.60328 | 28 ft | 13 kts | 45° |
| 2026-04-23 00:51 | 45.59104 | -122.60233 | 28 ft | 14 kts | 45° |
| 2026-04-23 00:51 | 45.59176 | -122.60132 | 28 ft | 15 kts | 45° |
| 2026-04-23 00:52 | 45.59252 | -122.60024 | 28 ft | 16 kts | 44° |
| 2026-04-23 00:52 | 45.59333 | -122.59911 | 28 ft | 17 kts | 45° |
| 2026-04-23 00:52 | 45.59353 | -122.59772 | 30 ft | 16 kts | 117° |
| 2026-04-23 00:52 | 45.59298 | -122.59630 | 31 ft | 17 kts | 120° |
| 2026-04-23 00:53 | 45.59239 | -122.59479 | 31 ft | 18 kts | 118° |
| 2026-04-23 00:53 | 45.59174 | -122.59364 | 31 ft | 11 kts | 178° |
| 2026-04-23 00:53 | 45.59126 | -122.59401 | 31 ft | 3 kts | 208° |
| 2026-04-23 00:53 | 45.59114 | -122.59410 | 30 ft | 0 kts | 208° |